sensor_id;sensor_type;location;lat;lon;timestamp;temperature;humidity
70676;DHT22;59069;52.242;20.900;2023-07-31T00:01:55;18.72;75.67
70676;DHT22;59069;52.242;20.900;2023-07-31T00:04:20;18.68;75.62
70676;DHT22;59069;52.242;20.900;2023-07-31T00:06:46;18.66;75.66
70676;DHT22;59069;52.242;20.900;2023-07-31T00:09:11;18.68;75.63
70676;DHT22;59069;52.242;20.900;2023-07-31T00:11:36;18.66;75.56
70676;DHT22;59069;52.242;20.900;2023-07-31T00:14:02;18.66;75.55
70676;DHT22;59069;52.242;20.900;2023-07-31T00:16:27;18.63;75.51
70676;DHT22;59069;52.242;20.900;2023-07-31T00:18:53;18.61;75.50
70676;DHT22;59069;52.242;20.900;2023-07-31T00:21:18;18.59;75.52
70676;DHT22;59069;52.242;20.900;2023-07-31T00:23:44;18.59;75.48
70676;DHT22;59069;52.242;20.900;2023-07-31T00:26:09;18.56;75.43
70676;DHT22;59069;52.242;20.900;2023-07-31T00:28:34;18.56;75.34
70676;DHT22;59069;52.242;20.900;2023-07-31T00:31:00;18.55;75.24
70676;DHT22;59069;52.242;20.900;2023-07-31T00:33:25;18.53;75.21
70676;DHT22;59069;52.242;20.900;2023-07-31T00:35:50;18.51;75.23
70676;DHT22;59069;52.242;20.900;2023-07-31T00:38:16;18.49;75.29
70676;DHT22;59069;52.242;20.900;2023-07-31T00:40:41;18.45;75.36
70676;DHT22;59069;52.242;20.900;2023-07-31T00:43:06;18.38;75.40
70676;DHT22;59069;52.242;20.900;2023-07-31T00:45:32;18.40;75.51
70676;DHT22;59069;52.242;20.900;2023-07-31T00:47:58;18.32;75.68
70676;DHT22;59069;52.242;20.900;2023-07-31T00:50:28;18.30;75.84
70676;DHT22;59069;52.242;20.900;2023-07-31T00:52:53;18.24;75.98
70676;DHT22;59069;52.242;20.900;2023-07-31T00:55:19;18.20;76.14
70676;DHT22;59069;52.242;20.900;2023-07-31T00:57:48;18.12;76.36
70676;DHT22;59069;52.242;20.900;2023-07-31T01:00:13;18.11;76.52
70676;DHT22;59069;52.242;20.900;2023-07-31T01:02:38;18.07;76.69
70676;DHT22;59069;52.242;20.900;2023-07-31T01:05:04;18.07;76.82
70676;DHT22;59069;52.242;20.900;2023-07-31T01:07:51;17.98;77.01
70676;DHT22;59069;52.242;20.900;2023-07-31T01:10:26;17.94;77.19
70676;DHT22;59069;52.242;20.900;2023-07-31T01:12:53;17.91;77.33
70676;DHT22;59069;52.242;20.900;2023-07-31T01:15:19;17.90;77.49
70676;DHT22;59069;52.242;20.900;2023-07-31T01:17:44;17.87;77.57
70676;DHT22;59069;52.242;20.900;2023-07-31T01:20:13;17.87;77.62
70676;DHT22;59069;52.242;20.900;2023-07-31T01:28:04;17.83;77.96
70676;DHT22;59069;52.242;20.900;2023-07-31T01:30:34;17.83;78.00
70676;DHT22;59069;52.242;20.900;2023-07-31T01:33:03;17.83;78.02
70676;DHT22;59069;52.242;20.900;2023-07-31T01:35:36;17.80;78.01
70676;DHT22;59069;52.242;20.900;2023-07-31T01:38:02;17.77;78.05
70676;DHT22;59069;52.242;20.900;2023-07-31T01:40:27;17.74;78.14
70676;DHT22;59069;52.242;20.900;2023-07-31T01:42:53;17.71;78.21
70676;DHT22;59069;52.242;20.900;2023-07-31T01:45:18;17.70;78.28
70676;DHT22;59069;52.242;20.900;2023-07-31T01:47:44;17.69;78.35
70676;DHT22;59069;52.242;20.900;2023-07-31T01:50:09;17.66;78.46
70676;DHT22;59069;52.242;20.900;2023-07-31T01:52:35;17.63;78.56
70676;DHT22;59069;52.242;20.900;2023-07-31T01:55:00;17.63;78.72
70676;DHT22;59069;52.242;20.900;2023-07-31T01:57:26;17.59;78.80
70676;DHT22;59069;52.242;20.900;2023-07-31T01:59:51;17.57;78.87
70676;DHT22;59069;52.242;20.900;2023-07-31T02:02:18;17.52;79.04
70676;DHT22;59069;52.242;20.900;2023-07-31T02:04:44;17.49;79.19
70676;DHT22;59069;52.242;20.900;2023-07-31T02:07:09;17.46;79.35
70676;DHT22;59069;52.242;20.900;2023-07-31T02:09:35;17.43;79.53
70676;DHT22;59069;52.242;20.900;2023-07-31T02:12:00;17.40;79.70
70676;DHT22;59069;52.242;20.900;2023-07-31T02:14:26;17.42;79.81
70676;DHT22;59069;52.242;20.900;2023-07-31T02:16:51;17.39;79.93
70676;DHT22;59069;52.242;20.900;2023-07-31T02:19:16;17.36;80.06
70676;DHT22;59069;52.242;20.900;2023-07-31T02:21:42;17.35;80.20
70676;DHT22;59069;52.242;20.900;2023-07-31T02:24:07;17.33;80.33
70676;DHT22;59069;52.242;20.900;2023-07-31T02:26:32;17.29;80.50
70676;DHT22;59069;52.242;20.900;2023-07-31T02:28:58;17.30;80.63
70676;DHT22;59069;52.242;20.900;2023-07-31T02:31:23;17.23;80.75
70676;DHT22;59069;52.242;20.900;2023-07-31T02:33:49;17.26;80.85
70676;DHT22;59069;52.242;20.900;2023-07-31T02:36:14;17.25;80.95
70676;DHT22;59069;52.242;20.900;2023-07-31T02:38:40;17.25;81.06
70676;DHT22;59069;52.242;20.900;2023-07-31T02:41:05;17.22;81.20
70676;DHT22;59069;52.242;20.900;2023-07-31T02:43:31;17.20;81.30
70676;DHT22;59069;52.242;20.900;2023-07-31T02:45:56;17.22;81.39
70676;DHT22;59069;52.242;20.900;2023-07-31T02:48:21;17.22;81.45
70676;DHT22;59069;52.242;20.900;2023-07-31T02:50:47;17.22;81.58
70676;DHT22;59069;52.242;20.900;2023-07-31T02:53:13;17.23;81.66
70676;DHT22;59069;52.242;20.900;2023-07-31T02:55:38;17.26;81.68
70676;DHT22;59069;52.242;20.900;2023-07-31T02:58:04;17.26;81.71
70676;DHT22;59069;52.242;20.900;2023-07-31T03:00:29;17.29;81.71
70676;DHT22;59069;52.242;20.900;2023-07-31T03:02:55;17.30;81.66
70676;DHT22;59069;52.242;20.900;2023-07-31T03:05:20;17.32;81.65
70676;DHT22;59069;52.242;20.900;2023-07-31T03:07:46;17.32;81.63
70676;DHT22;59069;52.242;20.900;2023-07-31T03:10:11;17.32;81.67
70676;DHT22;59069;52.242;20.900;2023-07-31T03:12:36;17.35;81.64
70676;DHT22;59069;52.242;20.900;2023-07-31T03:15:02;17.36;81.65
70676;DHT22;59069;52.242;20.900;2023-07-31T03:17:27;17.36;81.60
70676;DHT22;59069;52.242;20.900;2023-07-31T03:19:53;17.42;81.59
70676;DHT22;59069;52.242;20.900;2023-07-31T03:22:18;17.42;81.55
70676;DHT22;59069;52.242;20.900;2023-07-31T03:24:43;17.43;81.45
70676;DHT22;59069;52.242;20.900;2023-07-31T03:27:09;17.43;81.43
70676;DHT22;59069;52.242;20.900;2023-07-31T03:29:34;17.45;81.42
70676;DHT22;59069;52.242;20.900;2023-07-31T03:32:00;17.43;81.45
70676;DHT22;59069;52.242;20.900;2023-07-31T03:34:28;17.43;81.54
70676;DHT22;59069;52.242;20.900;2023-07-31T03:36:54;17.45;81.57
70676;DHT22;59069;52.242;20.900;2023-07-31T03:39:20;17.46;81.60
70676;DHT22;59069;52.242;20.900;2023-07-31T03:41:45;17.43;81.64
70676;DHT22;59069;52.242;20.900;2023-07-31T03:44:10;17.45;81.65
70676;DHT22;59069;52.242;20.900;2023-07-31T03:46:36;17.42;81.71
70676;DHT22;59069;52.242;20.900;2023-07-31T03:49:01;17.45;81.88
70676;DHT22;59069;52.242;20.900;2023-07-31T03:51:27;17.45;81.86
70676;DHT22;59069;52.242;20.900;2023-07-31T03:53:52;17.45;81.95
70676;DHT22;59069;52.242;20.900;2023-07-31T03:56:18;17.43;82.00
70676;DHT22;59069;52.242;20.900;2023-07-31T03:58:43;17.46;82.03
70676;DHT22;59069;52.242;20.900;2023-07-31T04:01:09;17.50;82.04
70676;DHT22;59069;52.242;20.900;2023-07-31T04:03:34;17.50;81.97
70676;DHT22;59069;52.242;20.900;2023-07-31T04:05:59;17.52;81.88
70676;DHT22;59069;52.242;20.900;2023-07-31T04:08:25;17.50;81.88
70676;DHT22;59069;52.242;20.900;2023-07-31T04:10:50;17.52;81.81
70676;DHT22;59069;52.242;20.900;2023-07-31T04:13:15;17.50;81.78
70676;DHT22;59069;52.242;20.900;2023-07-31T04:15:41;17.54;81.68
70676;DHT22;59069;52.242;20.900;2023-07-31T04:18:06;17.56;81.65
70676;DHT22;59069;52.242;20.900;2023-07-31T04:20:32;17.54;81.55
70676;DHT22;59069;52.242;20.900;2023-07-31T04:22:57;17.56;81.51
70676;DHT22;59069;52.242;20.900;2023-07-31T04:25:22;17.56;81.50
70676;DHT22;59069;52.242;20.900;2023-07-31T04:27:48;17.56;81.38
70676;DHT22;59069;52.242;20.900;2023-07-31T04:30:13;17.62;81.37
70676;DHT22;59069;52.242;20.900;2023-07-31T04:32:39;17.56;81.37
70676;DHT22;59069;52.242;20.900;2023-07-31T04:35:04;17.59;81.29
70676;DHT22;59069;52.242;20.900;2023-07-31T04:37:30;17.62;81.22
70676;DHT22;59069;52.242;20.900;2023-07-31T04:39:56;17.60;81.18
70676;DHT22;59069;52.242;20.900;2023-07-31T04:42:21;17.65;81.14
70676;DHT22;59069;52.242;20.900;2023-07-31T04:44:47;17.65;81.12
70676;DHT22;59069;52.242;20.900;2023-07-31T04:47:12;17.67;81.03
70676;DHT22;59069;52.242;20.900;2023-07-31T04:49:38;17.66;80.91
70676;DHT22;59069;52.242;20.900;2023-07-31T04:52:03;17.67;80.93
70676;DHT22;59069;52.242;20.900;2023-07-31T04:54:29;17.74;80.88
70676;DHT22;59069;52.242;20.900;2023-07-31T04:56:54;17.74;80.86
70676;DHT22;59069;52.242;20.900;2023-07-31T04:59:20;17.76;80.81
70676;DHT22;59069;52.242;20.900;2023-07-31T05:01:45;17.83;80.65
70676;DHT22;59069;52.242;20.900;2023-07-31T05:04:14;17.86;80.36
70676;DHT22;59069;52.242;20.900;2023-07-31T05:06:40;17.86;80.12
70676;DHT22;59069;52.242;20.900;2023-07-31T05:09:05;17.86;80.00
70676;DHT22;59069;52.242;20.900;2023-07-31T05:11:33;17.86;79.93
70676;DHT22;59069;52.242;20.900;2023-07-31T05:13:59;17.86;79.86
70676;DHT22;59069;52.242;20.900;2023-07-31T05:16:24;17.87;79.87
70676;DHT22;59069;52.242;20.900;2023-07-31T05:18:49;17.90;79.64
70676;DHT22;59069;52.242;20.900;2023-07-31T05:21:15;17.90;79.48
70676;DHT22;59069;52.242;20.900;2023-07-31T05:23:40;17.90;79.33
70676;DHT22;59069;52.242;20.900;2023-07-31T05:26:06;17.97;79.16
70676;DHT22;59069;52.242;20.900;2023-07-31T05:28:34;17.97;79.06
70676;DHT22;59069;52.242;20.900;2023-07-31T05:31:00;17.98;78.95
70676;DHT22;59069;52.242;20.900;2023-07-31T05:33:26;17.98;78.85
70676;DHT22;59069;52.242;20.900;2023-07-31T05:35:52;18.00;78.85
70676;DHT22;59069;52.242;20.900;2023-07-31T05:38:17;18.00;78.71
70676;DHT22;59069;52.242;20.900;2023-07-31T05:40:43;18.02;78.56
70676;DHT22;59069;52.242;20.900;2023-07-31T05:43:08;18.02;78.41
70676;DHT22;59069;52.242;20.900;2023-07-31T05:45:34;18.07;78.33
70676;DHT22;59069;52.242;20.900;2023-07-31T05:48:00;18.10;78.23
70676;DHT22;59069;52.242;20.900;2023-07-31T05:50:25;18.11;78.04
70676;DHT22;59069;52.242;20.900;2023-07-31T05:52:51;18.15;77.94
70676;DHT22;59069;52.242;20.900;2023-07-31T05:55:16;18.17;77.49
70676;DHT22;59069;52.242;20.900;2023-07-31T05:57:42;18.17;77.39
70676;DHT22;59069;52.242;20.900;2023-07-31T06:00:08;18.18;77.27
70676;DHT22;59069;52.242;20.900;2023-07-31T06:02:33;18.21;76.85
70676;DHT22;59069;52.242;20.900;2023-07-31T06:05:02;18.21;76.93
70676;DHT22;59069;52.242;20.900;2023-07-31T06:07:29;18.24;76.50
70676;DHT22;59069;52.242;20.900;2023-07-31T06:09:54;18.22;76.23
70676;DHT22;59069;52.242;20.900;2023-07-31T06:12:20;18.22;76.29
70676;DHT22;59069;52.242;20.900;2023-07-31T06:14:46;18.24;76.39
70676;DHT22;59069;52.242;20.900;2023-07-31T06:17:11;18.27;76.35
70676;DHT22;59069;52.242;20.900;2023-07-31T06:19:37;18.22;76.33
70676;DHT22;59069;52.242;20.900;2023-07-31T06:22:05;18.18;76.60
70676;DHT22;59069;52.242;20.900;2023-07-31T06:24:30;18.15;76.81
70676;DHT22;59069;52.242;20.900;2023-07-31T06:26:56;18.14;77.05
70676;DHT22;59069;52.242;20.900;2023-07-31T06:29:22;18.08;77.32
70676;DHT22;59069;52.242;20.900;2023-07-31T06:31:48;18.10;77.67
70676;DHT22;59069;52.242;20.900;2023-07-31T06:34:13;18.10;77.82
70676;DHT22;59069;52.242;20.900;2023-07-31T06:36:38;18.10;77.86
70676;DHT22;59069;52.242;20.900;2023-07-31T06:39:04;18.12;77.90
70676;DHT22;59069;52.242;20.900;2023-07-31T06:41:29;18.12;77.88
70676;DHT22;59069;52.242;20.900;2023-07-31T06:43:54;18.12;78.01
70676;DHT22;59069;52.242;20.900;2023-07-31T06:46:20;18.21;77.93
70676;DHT22;59069;52.242;20.900;2023-07-31T06:48:45;18.21;77.82
70676;DHT22;59069;52.242;20.900;2023-07-31T06:51:10;18.25;77.69
70676;DHT22;59069;52.242;20.900;2023-07-31T06:53:36;18.28;77.61
70676;DHT22;59069;52.242;20.900;2023-07-31T06:56:01;18.31;77.45
70676;DHT22;59069;52.242;20.900;2023-07-31T06:58:27;18.37;77.48
70676;DHT22;59069;52.242;20.900;2023-07-31T07:00:52;18.42;77.38
70676;DHT22;59069;52.242;20.900;2023-07-31T07:03:20;18.49;77.14
70676;DHT22;59069;52.242;20.900;2023-07-31T07:05:45;18.58;76.92
70676;DHT22;59069;52.242;20.900;2023-07-31T07:08:14;18.65;76.84
70676;DHT22;59069;52.242;20.900;2023-07-31T07:10:39;18.75;76.54
70676;DHT22;59069;52.242;20.900;2023-07-31T07:13:04;18.91;76.18
70676;DHT22;59069;52.242;20.900;2023-07-31T07:15:30;19.07;76.12
70676;DHT22;59069;52.242;20.900;2023-07-31T07:17:55;19.23;75.68
70676;DHT22;59069;52.242;20.900;2023-07-31T07:20:21;19.38;74.90
70676;DHT22;59069;52.242;20.900;2023-07-31T07:22:46;19.57;74.46
70676;DHT22;59069;52.242;20.900;2023-07-31T07:25:12;19.70;73.93
70676;DHT22;59069;52.242;20.900;2023-07-31T07:27:37;19.94;73.96
70676;DHT22;59069;52.242;20.900;2023-07-31T07:30:03;20.04;72.17
70676;DHT22;59069;52.242;20.900;2023-07-31T07:32:28;20.06;71.22
70676;DHT22;59069;52.242;20.900;2023-07-31T07:34:55;20.15;70.93
70676;DHT22;59069;52.242;20.900;2023-07-31T07:37:20;20.21;70.40
70676;DHT22;59069;52.242;20.900;2023-07-31T07:39:46;20.26;70.09
70676;DHT22;59069;52.242;20.900;2023-07-31T07:42:11;20.33;69.91
70676;DHT22;59069;52.242;20.900;2023-07-31T07:44:36;20.40;70.03
70676;DHT22;59069;52.242;20.900;2023-07-31T07:47:03;20.46;69.62
70676;DHT22;59069;52.242;20.900;2023-07-31T07:49:28;20.53;69.24
70676;DHT22;59069;52.242;20.900;2023-07-31T07:51:54;20.56;68.79
70676;DHT22;59069;52.242;20.900;2023-07-31T07:54:19;20.57;68.56
70676;DHT22;59069;52.242;20.900;2023-07-31T07:56:48;20.64;68.53
70676;DHT22;59069;52.242;20.900;2023-07-31T07:59:13;20.66;68.11
70676;DHT22;59069;52.242;20.900;2023-07-31T08:01:39;20.72;67.81
70676;DHT22;59069;52.242;20.900;2023-07-31T08:04:04;20.77;67.73
70676;DHT22;59069;52.242;20.900;2023-07-31T08:06:29;20.87;67.82
70676;DHT22;59069;52.242;20.900;2023-07-31T08:08:55;20.95;67.57
70676;DHT22;59069;52.242;20.900;2023-07-31T08:11:21;21.08;66.97
70676;DHT22;59069;52.242;20.900;2023-07-31T08:13:49;21.24;67.09
70676;DHT22;59069;52.242;20.900;2023-07-31T08:16:14;21.45;66.48
70676;DHT22;59069;52.242;20.900;2023-07-31T08:18:39;21.65;64.95
70676;DHT22;59069;52.242;20.900;2023-07-31T08:21:05;21.74;63.75
70676;DHT22;59069;52.242;20.900;2023-07-31T08:23:31;21.81;63.14
70676;DHT22;59069;52.242;20.900;2023-07-31T08:25:56;21.88;62.83
70676;DHT22;59069;52.242;20.900;2023-07-31T08:28:21;21.93;62.29
70676;DHT22;59069;52.242;20.900;2023-07-31T08:30:47;22.05;62.17
70676;DHT22;59069;52.242;20.900;2023-07-31T08:33:12;22.05;61.32
70676;DHT22;59069;52.242;20.900;2023-07-31T08:35:38;22.10;61.14
70676;DHT22;59069;52.242;20.900;2023-07-31T08:38:03;22.14;61.10
70676;DHT22;59069;52.242;20.900;2023-07-31T08:40:29;22.26;60.62
70676;DHT22;59069;52.242;20.900;2023-07-31T08:42:55;22.29;60.11
70676;DHT22;59069;52.242;20.900;2023-07-31T08:45:27;22.39;60.17
70676;DHT22;59069;52.242;20.900;2023-07-31T08:47:53;22.54;60.33
70676;DHT22;59069;52.242;20.900;2023-07-31T08:50:19;22.67;59.00
70676;DHT22;59069;52.242;20.900;2023-07-31T08:52:46;22.75;57.74
70676;DHT22;59069;52.242;20.900;2023-07-31T08:55:13;22.79;57.04
70676;DHT22;59069;52.242;20.900;2023-07-31T08:57:38;22.79;56.76
70676;DHT22;59069;52.242;20.900;2023-07-31T09:00:05;22.79;56.40
70676;DHT22;59069;52.242;20.900;2023-07-31T09:02:55;22.88;56.66
70676;DHT22;59069;52.242;20.900;2023-07-31T09:05:21;22.91;56.44
70676;DHT22;59069;52.242;20.900;2023-07-31T09:07:47;22.92;55.54
70676;DHT22;59069;52.242;20.900;2023-07-31T09:10:13;22.99;55.11
70676;DHT22;59069;52.242;20.900;2023-07-31T09:12:39;22.98;54.77
70676;DHT22;59069;52.242;20.900;2023-07-31T09:15:05;22.97;54.77
70676;DHT22;59069;52.242;20.900;2023-07-31T09:17:32;22.97;54.52
70676;DHT22;59069;52.242;20.900;2023-07-31T09:19:58;23.02;54.73
70676;DHT22;59069;52.242;20.900;2023-07-31T09:22:37;23.08;54.29
70676;DHT22;59069;52.242;20.900;2023-07-31T09:27:53;23.16;54.33
70676;DHT22;59069;52.242;20.900;2023-07-31T09:30:18;23.16;53.97
70676;DHT22;59069;52.242;20.900;2023-07-31T09:32:45;23.14;53.58
70676;DHT22;59069;52.242;20.900;2023-07-31T09:35:20;23.15;53.85
70676;DHT22;59069;52.242;20.900;2023-07-31T09:37:50;23.20;54.00
70676;DHT22;59069;52.242;20.900;2023-07-31T09:40:35;23.29;53.28
70676;DHT22;59069;52.242;20.900;2023-07-31T09:43:06;23.41;53.28
70676;DHT22;59069;52.242;20.900;2023-07-31T09:45:37;23.41;52.27
70676;DHT22;59069;52.242;20.900;2023-07-31T09:48:03;23.41;52.06
70676;DHT22;59069;52.242;20.900;2023-07-31T09:50:31;23.35;52.25
70676;DHT22;59069;52.242;20.900;2023-07-31T09:52:57;23.41;52.98
70676;DHT22;59069;52.242;20.900;2023-07-31T09:55:22;23.52;51.85
70676;DHT22;59069;52.242;20.900;2023-07-31T09:57:48;23.63;50.32
70676;DHT22;59069;52.242;20.900;2023-07-31T10:00:18;23.73;49.36
70676;DHT22;59069;52.242;20.900;2023-07-31T10:02:45;23.74;49.05
70676;DHT22;59069;52.242;20.900;2023-07-31T10:05:15;23.81;49.45
70676;DHT22;59069;52.242;20.900;2023-07-31T10:07:43;23.84;48.58
70676;DHT22;59069;52.242;20.900;2023-07-31T10:10:11;23.92;48.69
70676;DHT22;59069;52.242;20.900;2023-07-31T10:12:37;23.97;47.29
70676;DHT22;59069;52.242;20.900;2023-07-31T10:15:03;24.06;47.81
70676;DHT22;59069;52.242;20.900;2023-07-31T10:17:30;24.07;46.00
70676;DHT22;59069;52.242;20.900;2023-07-31T10:19:58;24.06;45.50
70676;DHT22;59069;52.242;20.900;2023-07-31T10:22:26;24.06;45.61
70676;DHT22;59069;52.242;20.900;2023-07-31T10:24:52;24.10;45.66
70676;DHT22;59069;52.242;20.900;2023-07-31T10:27:19;24.24;45.60
70676;DHT22;59069;52.242;20.900;2023-07-31T10:29:45;24.42;45.53
70676;DHT22;59069;52.242;20.900;2023-07-31T10:32:13;24.57;44.21
70676;DHT22;59069;52.242;20.900;2023-07-31T10:34:41;24.68;43.93
70676;DHT22;59069;52.242;20.900;2023-07-31T10:37:27;24.82;43.84
70676;DHT22;59069;52.242;20.900;2023-07-31T10:45:04;25.31;42.56
70676;DHT22;59069;52.242;20.900;2023-07-31T10:47:30;25.46;40.76
70676;DHT22;59069;52.242;20.900;2023-07-31T10:50:18;25.44;40.41
70676;DHT22;59069;52.242;20.900;2023-07-31T10:52:52;25.44;41.48
70676;DHT22;59069;52.242;20.900;2023-07-31T10:57:50;25.54;41.19
70676;DHT22;59069;52.242;20.900;2023-07-31T11:00:20;25.56;40.99
70676;DHT22;59069;52.242;20.900;2023-07-31T11:08:31;25.50;40.85
70676;DHT22;59069;52.242;20.900;2023-07-31T11:13:29;25.37;41.26
70676;DHT22;59069;52.242;20.900;2023-07-31T11:15:55;25.40;41.15
70676;DHT22;59069;52.242;20.900;2023-07-31T11:18:20;25.50;40.95
70676;DHT22;59069;52.242;20.900;2023-07-31T11:20:46;25.59;40.39
70676;DHT22;59069;52.242;20.900;2023-07-31T11:23:11;25.59;40.60
70676;DHT22;59069;52.242;20.900;2023-07-31T11:25:38;25.51;40.08
70676;DHT22;59069;52.242;20.900;2023-07-31T11:28:06;25.43;40.79
70676;DHT22;59069;52.242;20.900;2023-07-31T11:30:32;25.39;40.61
70676;DHT22;59069;52.242;20.900;2023-07-31T11:33:00;25.50;41.21
70676;DHT22;59069;52.242;20.900;2023-07-31T11:35:26;25.61;40.16
70676;DHT22;59069;52.242;20.900;2023-07-31T11:37:51;25.68;39.26
70676;DHT22;59069;52.242;20.900;2023-07-31T11:40:18;25.70;39.18
70676;DHT22;59069;52.242;20.900;2023-07-31T11:42:43;25.54;39.20
70676;DHT22;59069;52.242;20.900;2023-07-31T11:45:09;25.40;39.51
70676;DHT22;59069;52.242;20.900;2023-07-31T11:47:36;25.22;39.77
70676;DHT22;59069;52.242;20.900;2023-07-31T11:50:06;25.02;40.49
70676;DHT22;59069;52.242;20.900;2023-07-31T11:52:35;24.80;41.09
70676;DHT22;59069;52.242;20.900;2023-07-31T11:55:01;24.69;41.75
70676;DHT22;59069;52.242;20.900;2023-07-31T11:57:27;24.58;42.07
70676;DHT22;59069;52.242;20.900;2023-07-31T11:59:54;24.54;42.36
70676;DHT22;59069;52.242;20.900;2023-07-31T12:02:20;24.54;42.86
70676;DHT22;59069;52.242;20.900;2023-07-31T12:04:46;24.61;43.26
70676;DHT22;59069;52.242;20.900;2023-07-31T12:07:12;24.65;42.68
70676;DHT22;59069;52.242;20.900;2023-07-31T12:09:38;24.59;42.73
70676;DHT22;59069;52.242;20.900;2023-07-31T12:12:08;24.52;43.25
70676;DHT22;59069;52.242;20.900;2023-07-31T12:14:33;24.55;43.24
70676;DHT22;59069;52.242;20.900;2023-07-31T12:17:03;24.45;43.26
70676;DHT22;59069;52.242;20.900;2023-07-31T12:19:29;24.31;43.53
70676;DHT22;59069;52.242;20.900;2023-07-31T12:21:58;24.16;43.84
70676;DHT22;59069;52.242;20.900;2023-07-31T12:24:25;24.04;43.94
70676;DHT22;59069;52.242;20.900;2023-07-31T12:26:51;24.00;44.53
70676;DHT22;59069;52.242;20.900;2023-07-31T12:29:17;23.98;44.77
70676;DHT22;59069;52.242;20.900;2023-07-31T12:31:43;23.93;45.05
70676;DHT22;59069;52.242;20.900;2023-07-31T12:34:19;23.86;45.03
70676;DHT22;59069;52.242;20.900;2023-07-31T12:36:46;23.77;45.27
70676;DHT22;59069;52.242;20.900;2023-07-31T12:39:14;23.73;45.72
70676;DHT22;59069;52.242;20.900;2023-07-31T12:41:40;23.71;46.10
70676;DHT22;59069;52.242;20.900;2023-07-31T12:44:05;23.83;46.54
70676;DHT22;59069;52.242;20.900;2023-07-31T12:46:30;23.94;46.59
70676;DHT22;59069;52.242;20.900;2023-07-31T12:48:56;24.25;47.09
70676;DHT22;59069;52.242;20.900;2023-07-31T12:51:21;24.73;46.24
70676;DHT22;59069;52.242;20.900;2023-07-31T12:53:47;25.29;45.05
70676;DHT22;59069;52.242;20.900;2023-07-31T12:56:12;25.73;43.44
70676;DHT22;59069;52.242;20.900;2023-07-31T12:58:38;25.97;41.89
70676;DHT22;59069;52.242;20.900;2023-07-31T13:01:03;26.49;43.48
70676;DHT22;59069;52.242;20.900;2023-07-31T13:03:29;27.13;41.42
70676;DHT22;59069;52.242;20.900;2023-07-31T13:05:54;28.08;40.44
70676;DHT22;59069;52.242;20.900;2023-07-31T13:08:20;28.87;37.65
70676;DHT22;59069;52.242;20.900;2023-07-31T13:10:45;29.29;34.57
70676;DHT22;59069;52.242;20.900;2023-07-31T13:13:11;30.06;36.29
70676;DHT22;59069;52.242;20.900;2023-07-31T13:15:36;30.99;33.19
70676;DHT22;59069;52.242;20.900;2023-07-31T13:18:02;31.26;30.23
70676;DHT22;59069;52.242;20.900;2023-07-31T13:20:27;31.03;29.24
70676;DHT22;59069;52.242;20.900;2023-07-31T13:22:53;30.61;29.99
70676;DHT22;59069;52.242;20.900;2023-07-31T13:25:18;30.12;29.82
70676;DHT22;59069;52.242;20.900;2023-07-31T13:27:43;29.29;30.06
70676;DHT22;59069;52.242;20.900;2023-07-31T13:30:09;28.50;31.84
70676;DHT22;59069;52.242;20.900;2023-07-31T13:32:34;28.03;33.98
70676;DHT22;59069;52.242;20.900;2023-07-31T13:35:07;28.42;36.63
70676;DHT22;59069;52.242;20.900;2023-07-31T13:37:33;29.12;33.91
70676;DHT22;59069;52.242;20.900;2023-07-31T13:39:58;29.86;32.86
70676;DHT22;59069;52.242;20.900;2023-07-31T13:42:24;30.21;30.28
70676;DHT22;59069;52.242;20.900;2023-07-31T13:44:49;30.31;30.40
70676;DHT22;59069;52.242;20.900;2023-07-31T13:47:15;29.92;29.38
70676;DHT22;59069;52.242;20.900;2023-07-31T13:49:40;29.21;29.92
70676;DHT22;59069;52.242;20.900;2023-07-31T13:52:06;28.77;31.71
70676;DHT22;59069;52.242;20.900;2023-07-31T13:54:32;28.47;32.83
70676;DHT22;59069;52.242;20.900;2023-07-31T13:56:57;28.32;33.29
70676;DHT22;59069;52.242;20.900;2023-07-31T13:59:23;28.06;32.64
70676;DHT22;59069;52.242;20.900;2023-07-31T14:01:49;27.62;32.53
70676;DHT22;59069;52.242;20.900;2023-07-31T14:04:15;27.07;33.20
70676;DHT22;59069;52.242;20.900;2023-07-31T14:06:41;26.55;34.51
70676;DHT22;59069;52.242;20.900;2023-07-31T14:09:06;26.00;35.71
70676;DHT22;59069;52.242;20.900;2023-07-31T14:11:32;25.53;36.96
70676;DHT22;59069;52.242;20.900;2023-07-31T14:13:57;25.30;37.83
70676;DHT22;59069;52.242;20.900;2023-07-31T14:16:23;25.20;38.58
70676;DHT22;59069;52.242;20.900;2023-07-31T14:18:48;25.18;39.02
70676;DHT22;59069;52.242;20.900;2023-07-31T14:21:14;25.20;39.39
70676;DHT22;59069;52.242;20.900;2023-07-31T14:23:40;25.26;39.65
70676;DHT22;59069;52.242;20.900;2023-07-31T14:26:05;25.22;39.95
70676;DHT22;59069;52.242;20.900;2023-07-31T14:28:31;25.19;39.76
70676;DHT22;59069;52.242;20.900;2023-07-31T14:30:56;25.13;39.81
70676;DHT22;59069;52.242;20.900;2023-07-31T14:33:22;25.03;39.89
70676;DHT22;59069;52.242;20.900;2023-07-31T14:35:47;24.99;40.33
70676;DHT22;59069;52.242;20.900;2023-07-31T14:38:12;25.15;41.12
70676;DHT22;59069;52.242;20.900;2023-07-31T14:40:38;25.46;41.50
70676;DHT22;59069;52.242;20.900;2023-07-31T14:43:04;25.78;40.36
70676;DHT22;59069;52.242;20.900;2023-07-31T14:45:29;26.00;39.40
70676;DHT22;59069;52.242;20.900;2023-07-31T14:47:54;26.05;38.80
70676;DHT22;59069;52.242;20.900;2023-07-31T14:50:20;25.98;38.76
70676;DHT22;59069;52.242;20.900;2023-07-31T14:52:47;25.81;39.03
70676;DHT22;59069;52.242;20.900;2023-07-31T14:55:13;25.57;39.26
70676;DHT22;59069;52.242;20.900;2023-07-31T14:57:38;25.33;40.06
70676;DHT22;59069;52.242;20.900;2023-07-31T15:00:04;25.08;40.76
70676;DHT22;59069;52.242;20.900;2023-07-31T15:02:39;24.85;41.05
70676;DHT22;59069;52.242;20.900;2023-07-31T15:05:05;24.61;41.40
70676;DHT22;59069;52.242;20.900;2023-07-31T15:07:31;24.39;42.04
70676;DHT22;59069;52.242;20.900;2023-07-31T15:09:56;24.31;42.63
70676;DHT22;59069;52.242;20.900;2023-07-31T15:12:22;24.17;43.06
70676;DHT22;59069;52.242;20.900;2023-07-31T15:14:48;24.06;43.38
70676;DHT22;59069;52.242;20.900;2023-07-31T15:17:14;23.98;43.80
70676;DHT22;59069;52.242;20.900;2023-07-31T15:19:39;23.92;44.22
70676;DHT22;59069;52.242;20.900;2023-07-31T15:22:05;23.86;44.60
70676;DHT22;59069;52.242;20.900;2023-07-31T15:24:30;23.86;44.68
70676;DHT22;59069;52.242;20.900;2023-07-31T15:26:56;23.87;44.77
70676;DHT22;59069;52.242;20.900;2023-07-31T15:29:21;23.86;44.69
70676;DHT22;59069;52.242;20.900;2023-07-31T15:31:47;23.92;44.92
70676;DHT22;59069;52.242;20.900;2023-07-31T15:34:13;24.00;44.96